Terminal Aerodrome Forecast
Issued by NWS

Home | Current Version | Previous Version | Graphics & Text | Print | Product List | Glossary On
Versions: 1 2 3 4 5 6 7 8 9 10 11 12 13 14 15 16
000
FTUS43 KMPX 212300
TAFAXN
TAF
KAXN 212337Z 2200/2224 33015G27KT P6SM SKC
     FM220200 33008KT P6SM SKC
     FM220600 VRB03KT P6SM SKC
     FM221800 07005KT P6SM SCT250=

USA.gov is the U.S. government's official web portal to all federal, state and local government web resources and services.